Time;durP1;ratioP1;P1;durP2;ratioP2;P2;SDS_P1;SDS_P2;PMS_P1;PMS_P2;Temp;Humidity;BMP_temperature;BMP_pressure;BME280_temperature;BME280_humidity;BME280_pressure;Samples;Min_cycle;Max_cycle;Signal;HPM_P1;HPM_P2
2022/07/13 00:01:04;;;;;;;;;;;;;;;;;;4813195;29;19929;-89
2022/07/13 00:03:31;;;;;;;;;;;;;;;;;;4831487;29;20256;-88
2022/07/13 00:05:58;;;;;;;;;;;;;;;;;;4824950;29;20424;-89
2022/07/13 00:08:26;;;;;;;;;;;;;;;;;;4814757;29;19972;-88
2022/07/13 00:10:53;;;;;;;;;;;;;;;;;;4810046;29;19934;-88
2022/07/13 00:13:19;;;;;;;;;;;;;;;;;;4836328;29;19924;-88
2022/07/13 00:15:45;;;;;;;;;;;;;;;;;;4817461;29;20075;-88
2022/07/13 00:18:13;;;;;;;;;;;;;;;;;;4835679;29;19931;-88
2022/07/13 00:20:40;;;;;;;;;;;;;;;;;;4843835;29;20090;-88
2022/07/13 00:23:07;;;;;;;;;;;;;;;;;;4837290;29;19935;-87
2022/07/13 00:25:33;;;;;;;;;;;;;;;;;;4824749;29;19932;-88
2022/07/13 00:27:59;;;;;;;;;;;;;;;;;;4835906;29;19930;-88
2022/07/13 00:30:25;;;;;;;;;;;;;;;;;;4838412;29;19936;-88
2022/07/13 00:32:51;;;;;;;;;;;;;;;;;;4852238;29;19927;-88
2022/07/13 00:35:17;;;;;;;;;;;;;;;;;;4858909;29;20046;-87
2022/07/13 00:37:44;;;;;;;;;;;;;;;;;;4857212;29;19932;-88
2022/07/13 00:40:10;;;;;;;;;;;;;;;;;;4839893;29;19931;-87
2022/07/13 00:42:37;;;;;;;;;;;;;;;;;;4852842;29;20053;-88
2022/07/13 00:45:03;;;;;;;;;;;;;;;;;;4841470;29;20302;-88
2022/07/13 00:47:35;;;;;;;;;;;;;;;;;;4877186;29;19970;-88
2022/07/13 00:50:02;;;;;;;;;;;;;;;;;;4849718;29;20014;-88
2022/07/13 00:52:30;;;;;;;;;;;;;;;;;;4847796;29;20010;-88
2022/07/13 00:54:57;;;;;;;;;;;;;;;;;;4845277;29;19932;-88
2022/07/13 00:57:25;;;;;;;;;;;;;;;;;;4851193;29;19950;-88
2022/07/13 00:59:50;;;;;;;;;;;;;;;;;;4830172;29;19935;-89
2022/07/13 01:02:16;;;;;;;;;;;;;;;;;;4865238;29;20583;-88
2022/07/13 01:04:42;;;;;;;;;;;;;;;;;;4831442;29;20051;-89
2022/07/13 01:07:10;;;;;;;;;;;;;;;;;;4846906;29;19931;-88
2022/07/13 01:09:36;;;;;;;;;;;;;;;;;;4833202;29;20399;-88
2022/07/13 01:12:02;;;;;;;;;;;;;;;;;;4830273;29;20026;-88
2022/07/13 01:14:29;;;;;;;;;;;;;;;;;;4835564;29;19933;-88
2022/07/13 01:16:56;;;;;;;;;;;;;;;;;;4842373;29;19935;-88
2022/07/13 01:19:24;;;;;;;;;;;;;;;;;;4851618;29;19935;-87
2022/07/13 01:21:50;;;;;;;;;;;;;;;;;;4838248;29;19932;-89
2022/07/13 01:24:17;;;;;;;;;;;;;;;;;;4845035;29;19990;-88
2022/07/13 01:26:46;;;;;;;;;;;;;;;;;;4860650;29;19931;-88
2022/07/13 01:29:12;;;;;;;;;;;;;;;;;;4883734;29;20246;-88
2022/07/13 01:31:38;;;;;;;;;;;;;;;;;;4846483;29;20320;-88
2022/07/13 01:34:04;;;;;;;;;;;;;;;;;;4837395;29;19931;-88
2022/07/13 01:36:30;;;;;;;;;;;;;;;;;;4860001;29;20373;-88
2022/07/13 01:38:56;;;;;;;;;;;;;;;;;;4843742;29;19938;-88
2022/07/13 01:41:23;;;;;;;;;;;;;;;;;;4864964;29;19931;-88
2022/07/13 01:43:51;;;;;;;;;;;;;;;;;;4877593;29;19931;-88
2022/07/13 01:46:18;;;;;;;;;;;;;;;;;;4861792;29;19938;-88
2022/07/13 01:48:44;;;;;;;;;;;;;;;;;;4863593;29;19958;-88
2022/07/13 01:51:11;;;;;;;;;;;;;;;;;;4846639;29;19978;-88
2022/07/13 01:53:37;;;;;;;;;;;;;;;;;;4880492;29;19992;-88
2022/07/13 01:56:04;;;;;;;;;;;;;;;;;;4859036;29;19923;-88
2022/07/13 01:58:30;;;;;;;;;;;;;;;;;;4855555;29;19931;-88
2022/07/13 02:00:58;;;;;;;;;;;;;;;;;;4861555;29;19982;-88
2022/07/13 02:03:26;;;;;;;;;;;;;;;;;;4867823;29;19942;-88
2022/07/13 02:05:53;;;;;;;;;;;;;;;;;;4859698;29;19943;-88
2022/07/13 02:08:20;;;;;;;;;;;;;;;;;;4867140;29;19963;-88
2022/07/13 02:10:46;;;;;;;;;;;;;;;;;;4860745;29;19931;-89
2022/07/13 02:13:14;;;;;;;;;;;;;;;;;;4862556;29;19938;-89
2022/07/13 02:15:49;;;;;;;;;;;;;;;;;;4864989;29;20839;-89
2022/07/13 02:18:15;;;;;;;;;;;;;;;;;;4864022;29;20387;-89
2022/07/13 02:20:42;;;;;;;;;;;;;;;;;;4863344;29;19931;-88
2022/07/13 02:23:08;;;;;;;;;;;;;;;;;;4879945;29;19975;-88
2022/07/13 02:25:34;;;;;;;;;;;;;;;;;;4864298;29;19931;-88
2022/07/13 02:28:00;;;;;;;;;;;;;;;;;;4853257;29;19940;-88
2022/07/13 02:30:27;;;;;;;;;;;;;;;;;;4835518;29;19963;-88
2022/07/13 02:32:53;;;;;;;;;;;;;;;;;;4847451;29;19932;-88
2022/07/13 02:35:19;;;;;;;;;;;;;;;;;;4870768;29;19940;-88
2022/07/13 02:37:45;;;;;;;;;;;;;;;;;;4851975;29;20238;-88
2022/07/13 02:40:12;;;;;;;;;;;;;;;;;;4848580;29;19939;-88
2022/07/13 02:42:38;;;;;;;;;;;;;;;;;;4853370;29;19983;-88
2022/07/13 02:45:06;;;;;;;;;;;;;;;;;;4835790;29;20906;-88
2022/07/13 02:47:32;;;;;;;;;;;;;;;;;;4853288;29;21246;-88
2022/07/13 02:49:59;;;;;;;;;;;;;;;;;;4845428;29;20076;-88
2022/07/13 02:52:25;;;;;;;;;;;;;;;;;;4866678;29;20387;-88
2022/07/13 02:54:52;;;;;;;;;;;;;;;;;;4862264;29;19932;-88
2022/07/13 02:57:18;;;;;;;;;;;;;;;;;;4866433;29;19979;-88
2022/07/13 02:59:44;;;;;;;;;;;;;;;;;;4867383;29;19931;-88
2022/07/13 03:02:20;;;;;;;;;;;;;;;;;;4861950;29;19980;-88
2022/07/13 03:04:47;;;;;;;;;;;;;;;;;;4845977;29;19935;-87
2022/07/13 03:07:13;;;;;;;;;;;;;;;;;;4865040;29;19927;-88
2022/07/13 03:09:39;;;;;;;;;;;;;;;;;;4849884;29;19975;-88
2022/07/13 03:12:05;;;;;;;;;;;;;;;;;;4845732;29;19969;-88
2022/07/13 03:14:32;;;;;;;;;;;;;;;;;;4848687;29;19931;-88
2022/07/13 03:16:58;;;;;;;;;;;;;;;;;;4840829;29;20268;-88
2022/07/13 03:19:25;;;;;;;;;;;;;;;;;;4865531;29;19932;-88
2022/07/13 03:21:51;;;;;;;;;;;;;;;;;;4859956;29;19938;-87
2022/07/13 03:24:19;;;;;;;;;;;;;;;;;;4832852;29;20610;-88
2022/07/13 03:26:45;;;;;;;;;;;;;;;;;;4845724;29;19931;-88
2022/07/13 03:29:12;;;;;;;;;;;;;;;;;;4855552;29;19938;-88
2022/07/13 03:31:38;;;;;;;;;;;;;;;;;;4862634;29;20658;-88
2022/07/13 03:34:04;;;;;;;;;;;;;;;;;;4847419;29;21570;-88
2022/07/13 03:36:30;;;;;;;;;;;;;;;;;;4848647;29;19931;-88
2022/07/13 03:38:58;;;;;;;;;;;;;;;;;;4850004;29;20295;-88
2022/07/13 03:41:24;;;;;;;;;;;;;;;;;;4850328;29;19933;-88
2022/07/13 03:44:05;;;;;;;;;;;;;;;;;;4826569;29;24251;-88
2022/07/13 03:46:32;;;;;;;;;;;;;;;;;;4831210;29;19932;-88
2022/07/13 03:48:59;;;;;;;;;;;;;;;;;;4828191;29;20991;-88
2022/07/13 03:51:25;;;;;;;;;;;;;;;;;;4814246;29;19931;-88
2022/07/13 03:53:57;;;;;;;;;;;;;;;;;;4838461;29;19988;-88
2022/07/13 03:56:23;;;;;;;;;;;;;;;;;;4826937;29;20296;-88
2022/07/13 03:58:48;;;;;;;;;;;;;;;;;;4819523;29;19923;-88
2022/07/13 04:01:14;;;;;;;;;;;;;;;;;;4810802;29;20068;-88
2022/07/13 04:03:42;;;;;;;;;;;;;;;;;;4828778;29;19971;-89
2022/07/13 04:06:08;;;;;;;;;;;;;;;;;;4822202;29;20029;-88
2022/07/13 04:08:34;;;;;;;;;;;;;;;;;;4828776;29;19924;-88
2022/07/13 04:11:02;;;;;;;;;;;;;;;;;;4841987;29;19934;-88
2022/07/13 04:13:29;;;;;;;;;;;;;;;;;;4843237;29;20399;-87
2022/07/13 04:15:55;;;;;;;;;;;;;;;;;;4855841;29;19977;-88
2022/07/13 04:18:21;;;;;;;;;;;;;;;;;;4876199;29;20378;-88
2022/07/13 04:20:48;;;;;;;;;;;;;;;;;;4890448;29;19923;-89
2022/07/13 04:23:15;;;;;;;;;;;;;;;;;;4894947;29;19931;-88
2022/07/13 04:25:41;;;;;;;;;;;;;;;;;;4876622;29;20304;-88
2022/07/13 04:28:11;;;;;;;;;;;;;;;;;;4891679;29;19977;-88
2022/07/13 04:30:37;;;;;;;;;;;;;;;;;;4893215;29;20397;-88
2022/07/13 04:33:03;;;;;;;;;;;;;;;;;;4846260;29;20001;-88
2022/07/13 04:35:31;;;;;;;;;;;;;;;;;;4852923;29;20386;-88
2022/07/13 04:37:57;;;;;;;;;;;;;;;;;;4884005;29;19934;-85
2022/07/13 04:40:23;;;;;;;;;;;;;;;;;;4892640;29;20281;-86
2022/07/13 04:42:52;;;;;;;;;;;;;;;;;;4885394;28;19942;-86
2022/07/13 04:45:19;;;;;;;;;;;;;;;;;;4858484;29;20016;-86
2022/07/13 04:47:51;;;;;;;;;;;;;;;;;;4894208;29;19966;-86
2022/07/13 04:50:19;;;;;;;;;;;;;;;;;;4852936;29;20042;-88
2022/07/13 04:52:44;;;;;;;;;;;;;;;;;;4863137;29;19949;-88
2022/07/13 04:55:21;;;;;;;;;;;;;;;;;;4882468;29;19931;-88
2022/07/13 04:57:47;;;;;;;;;;;;;;;;;;4864419;29;19937;-88
2022/07/13 05:00:13;;;;;;;;;;;;;;;;;;4868116;29;19927;-88
2022/07/13 05:02:39;;;;;;;;;;;;;;;;;;4855280;29;20097;-88
2022/07/13 05:05:05;;;;;;;;;;;;;;;;;;4865196;29;19931;-88
2022/07/13 05:07:32;;;;;;;;;;;;;;;;;;4870668;29;19974;-88
2022/07/13 05:09:58;;;;;;;;;;;;;;;;;;4872395;29;20038;-87
2022/07/13 05:12:24;;;;;;;;;;;;;;;;;;4872783;29;19973;-88
2022/07/13 05:14:52;;;;;;;;;;;;;;;;;;4857825;29;19930;-88
2022/07/13 05:17:18;;;;;;;;;;;;;;;;;;4858062;29;20065;-88
2022/07/13 05:19:44;;;;;;;;;;;;;;;;;;4859864;29;19937;-88
2022/07/13 05:22:11;;;;;;;;;;;;;;;;;;4872742;29;19931;-87
2022/07/13 05:24:37;;;;;;;;;;;;;;;;;;4861877;29;20267;-88
2022/07/13 05:27:03;;;;;;;;;;;;;;;;;;4843716;29;19935;-88
2022/07/13 05:29:30;;;;;;;;;;;;;;;;;;4866423;29;19987;-87
2022/07/13 05:31:58;;;;;;;;;;;;;;;;;;4835563;29;19931;-87
2022/07/13 05:34:24;;;;;;;;;;;;;;;;;;4869015;29;20267;-88
2022/07/13 05:36:49;;;;;;;;;;;;;;;;;;4878664;29;19942;-88
2022/07/13 05:39:22;;;;;;;;;;;;;;;;;;4880784;29;19938;-88
2022/07/13 05:41:48;;;;;;;;;;;;;;;;;;4860390;29;19927;-88
2022/07/13 05:44:15;;;;;;;;;;;;;;;;;;4881090;29;19938;-87
2022/07/13 05:46:41;;;;;;;;;;;;;;;;;;4868792;29;19923;-87
2022/07/13 05:49:10;;;;;;;;;;;;;;;;;;4878811;29;19931;-86
2022/07/13 05:51:36;;;;;;;;;;;;;;;;;;4882003;29;20709;-87
2022/07/13 05:54:09;;;;;;;;;;;;;;;;;;4861574;29;19994;-87
2022/07/13 05:56:37;;;;;;;;;;;;;;;;;;4868102;29;19924;-86
2022/07/13 05:59:04;;;;;;;;;;;;;;;;;;4848215;29;19970;-87
2022/07/13 06:01:31;;;;;;;;;;;;;;;;;;4852254;29;19931;-87
2022/07/13 06:03:57;;;;;;;;;;;;;;;;;;4843318;29;19934;-87
2022/07/13 06:06:23;;;;;;;;;;;;;;;;;;4854824;29;19927;-87
2022/07/13 06:08:50;;;;;;;;;;;;;;;;;;4846207;29;19927;-87
2022/07/13 06:11:17;;;;;;;;;;;;;;;;;;4865302;29;19979;-87
2022/07/13 06:13:43;;;;;;;;;;;;;;;;;;4866670;29;19934;-87
2022/07/13 06:16:11;;;;;;;;;;;;;;;;;;4852448;29;19934;-87
2022/07/13 06:18:37;;;;;;;;;;;;;;;;;;4872398;29;19931;-88
2022/07/13 06:21:03;;;;;;;;;;;;;;;;;;4866230;29;20061;-87
2022/07/13 06:23:41;;;;;;;;;;;;;;;;;;4857296;29;20422;-88
2022/07/13 06:26:07;;;;;;;;;;;;;;;;;;4844170;29;19931;-88
2022/07/13 06:28:33;;;;;;;;;;;;;;;;;;4852373;29;19927;-88
2022/07/13 06:30:59;;;;;;;;;;;;;;;;;;4852383;29;19927;-88
2022/07/13 06:33:25;;;;;;;;;;;;;;;;;;4864064;29;19938;-88
2022/07/13 06:35:51;;;;;;;;;;;;;;;;;;4870914;29;19927;-88
2022/07/13 06:38:17;;;;;;;;;;;;;;;;;;4851930;29;20401;-88
2022/07/13 06:40:43;;;;;;;;;;;;;;;;;;4869773;29;20134;-88
2022/07/13 06:43:09;;;;;;;;;;;;;;;;;;4849874;29;19936;-88
2022/07/13 06:45:35;;;;;;;;;;;;;;;;;;4854706;29;20049;-88
2022/07/13 06:48:01;;;;;;;;;;;;;;;;;;4878985;29;20010;-89
2022/07/13 06:50:27;;;;;;;;;;;;;;;;;;4867292;29;19935;-88
2022/07/13 06:52:53;;;;;;;;;;;;;;;;;;4859617;29;19962;-88
2022/07/13 06:55:19;;;;;;;;;;;;;;;;;;4863740;29;19931;-88
2022/07/13 06:57:45;;;;;;;;;;;;;;;;;;4859797;29;19927;-88
2022/07/13 07:00:11;;;;;;;;;;;;;;;;;;4870543;29;19923;-88
2022/07/13 07:02:37;;;;;;;;;;;;;;;;;;4887400;29;19934;-88
2022/07/13 07:05:03;;;;;;;;;;;;;;;;;;4847294;29;19942;-89
2022/07/13 07:07:29;;;;;;;;;;;;;;;;;;4852668;29;20397;-89
2022/07/13 07:09:55;;;;;;;;;;;;;;;;;;4866847;29;19927;-89
2022/07/13 07:12:21;;;;;;;;;;;;;;;;;;4881390;29;19932;-89
2022/07/13 07:14:47;;;;;;;;;;;;;;;;;;4866192;29;20306;-88
2022/07/13 07:17:13;;;;;;;;;;;;;;;;;;4865565;29;19923;-88
2022/07/13 07:19:39;;;;;;;;;;;;;;;;;;4865718;29;19973;-87
2022/07/13 07:22:05;;;;;;;;;;;;;;;;;;4878358;29;21218;-88
2022/07/13 07:24:31;;;;;;;;;;;;;;;;;;4870051;29;20378;-88
2022/07/13 07:26:57;;;;;;;;;;;;;;;;;;4861181;29;19936;-88
2022/07/13 07:29:23;;;;;;;;;;;;;;;;;;4864243;29;19930;-87
2022/07/13 07:31:49;;;;;;;;;;;;;;;;;;4861386;29;20006;-88
2022/07/13 07:34:15;;;;;;;;;;;;;;;;;;4887045;29;19945;-88
2022/07/13 07:36:41;;;;;;;;;;;;;;;;;;4873678;29;19932;-87
2022/07/13 07:39:07;;;;;;;;;;;;;;;;;;4883213;29;20457;-87
2022/07/13 07:41:33;;;;;;;;;;;;;;;;;;4887241;29;20537;-88
2022/07/13 07:43:59;;;;;;;;;;;;;;;;;;4851767;29;20290;-89
2022/07/13 07:46:25;;;;;;;;;;;;;;;;;;4855524;29;19938;-88
2022/07/13 07:48:51;;;;;;;;;;;;;;;;;;4852059;29;20339;-88
2022/07/13 07:51:17;;;;;;;;;;;;;;;;;;4850958;29;19934;-89
2022/07/13 07:53:43;;;;;;;;;;;;;;;;;;4867363;29;19931;-89
2022/07/13 07:56:09;;;;;;;;;;;;;;;;;;4850965;29;19927;-88
2022/07/13 07:58:35;;;;;;;;;;;;;;;;;;4864434;29;19931;-88
2022/07/13 08:01:10;;;;;;;;;;;;;;;;;;4851818;29;19938;-88
2022/07/13 08:03:36;;;;;;;;;;;;;;;;;;4868985;29;19991;-89
2022/07/13 08:06:02;;;;;;;;;;;;;;;;;;4848401;29;19927;-88
2022/07/13 08:08:28;;;;;;;;;;;;;;;;;;4852043;29;21509;-87
2022/07/13 08:10:54;;;;;;;;;;;;;;;;;;4849377;29;19934;-87
2022/07/13 08:13:20;;;;;;;;;;;;;;;;;;4853639;29;19932;-87
2022/07/13 08:15:47;;;;;;;;;;;;;;;;;;4845767;29;19927;-88
2022/07/13 08:18:13;;;;;;;;;;;;;;;;;;4865324;29;19927;-87
2022/07/13 08:20:39;;;;;;;;;;;;;;;;;;4870813;29;20417;-88
2022/07/13 08:23:50;;;;;;;;;;;;;;;;;;4862312;29;19935;-87
2022/07/13 08:25:51;;;;;;;;;;;;;;;;;;4866551;29;19967;-87
2022/07/13 08:28:18;;;;;;;;;;;;;;;;;;4883672;29;20304;-87
2022/07/13 08:30:44;;;;;;;;;;;;;;;;;;4851525;29;20417;-88
2022/07/13 08:33:11;;;;;;;;;;;;;;;;;;4871781;29;19928;-88
2022/07/13 08:38:38;;;;;;;;;;;;;;;;;;4872230;29;19931;-88
2022/07/13 08:41:03;;;;;;;;;;;;;;;;;;4865990;29;19931;-88
2022/07/13 08:43:29;;;;;;;;;;;;;;;;;;4889371;29;19996;-88
2022/07/13 08:45:55;;;;;;;;;;;;;;;;;;4851764;29;19923;-87
2022/07/13 08:48:21;;;;;;;;;;;;;;;;;;4891654;29;19938;-89
2022/07/13 08:50:47;;;;;;;;;;;;;;;;;;4855767;29;19927;-88
2022/07/13 08:53:14;;;;;;;;;;;;;;;;;;4895524;29;19927;-87
2022/07/13 08:55:40;;;;;;;;;;;;;;;;;;4876772;29;19924;-88
2022/07/13 08:58:06;;;;;;;;;;;;;;;;;;4851599;29;19931;-88
2022/07/13 09:00:32;;;;;;;;;;;;;;;;;;4890907;29;20016;-88
2022/07/13 09:02:58;;;;;;;;;;;;;;;;;;4890752;29;19928;-88
2022/07/13 09:05:24;;;;;;;;;;;;;;;;;;4893269;29;19934;-88
2022/07/13 09:07:50;;;;;;;;;;;;;;;;;;4890203;29;19923;-88
2022/07/13 09:10:19;;;;;;;;;;;;;;;;;;4856539;29;19958;-88
2022/07/13 09:12:45;;;;;;;;;;;;;;;;;;4888153;29;19966;-88
2022/07/13 09:15:11;;;;;;;;;;;;;;;;;;4876978;29;20327;-88
2022/07/13 09:17:38;;;;;;;;;;;;;;;;;;4860328;29;19938;-88
2022/07/13 09:20:04;;;;;;;;;;;;;;;;;;4870417;29;20410;-88
2022/07/13 09:22:30;;;;;;;;;;;;;;;;;;4872633;29;19955;-89
2022/07/13 09:24:57;;;;;;;;;;;;;;;;;;4890534;29;20414;-88
2022/07/13 09:27:23;;;;;;;;;;;;;;;;;;4863599;29;19927;-88
2022/07/13 09:29:49;;;;;;;;;;;;;;;;;;4856560;29;19928;-88
2022/07/13 09:32:15;;;;;;;;;;;;;;;;;;4862614;29;19994;-88
2022/07/13 09:34:41;;;;;;;;;;;;;;;;;;4866990;29;19928;-89
2022/07/13 09:37:07;;;;;;;;;;;;;;;;;;4844533;29;19983;-88
2022/07/13 09:39:33;;;;;;;;;;;;;;;;;;4859201;29;20847;-88
2022/07/13 09:41:59;;;;;;;;;;;;;;;;;;4844910;29;19928;-88
2022/07/13 09:47:10;;;;;;;;;;;;;;;;;;4863517;29;19978;-88
2022/07/13 09:49:37;;;;;;;;;;;;;;;;;;4860585;29;20299;-88
2022/07/13 09:52:03;;;;;;;;;;;;;;;;;;4868597;29;20874;-88
2022/07/13 09:54:30;;;;;;;;;;;;;;;;;;4860104;29;19928;-88
2022/07/13 09:56:55;;;;;;;;;;;;;;;;;;4874449;29;20014;-88
2022/07/13 09:59:21;;;;;;;;;;;;;;;;;;4878905;29;19934;-88
2022/07/13 10:01:48;;;;;;;;;;;;;;;;;;4869666;29;19988;-89
2022/07/13 10:04:14;;;;;;;;;;;;;;;;;;4878361;29;19938;-89
2022/07/13 10:06:40;;;;;;;;;;;;;;;;;;4881627;29;20003;-88
2022/07/13 10:09:06;;;;;;;;;;;;;;;;;;4879996;29;19937;-89
2022/07/13 10:11:32;;;;;;;;;;;;;;;;;;4868961;29;19930;-89
2022/07/13 10:13:58;;;;;;;;;;;;;;;;;;4860616;29;19950;-88
2022/07/13 10:16:24;;;;;;;;;;;;;;;;;;4848445;29;19923;-89
2022/07/13 10:18:50;;;;;;;;;;;;;;;;;;4854762;29;19932;-89
2022/07/13 10:21:16;;;;;;;;;;;;;;;;;;4864402;29;19927;-89
2022/07/13 10:23:42;;;;;;;;;;;;;;;;;;4863415;29;19942;-89
2022/07/13 10:26:08;;;;;;;;;;;;;;;;;;4854559;29;20404;-88
2022/07/13 10:28:34;;;;;;;;;;;;;;;;;;4843445;29;19991;-88
2022/07/13 10:31:00;;;;;;;;;;;;;;;;;;4870894;29;20379;-89
2022/07/13 10:33:26;;;;;;;;;;;;;;;;;;4859860;29;20063;-88
2022/07/13 10:35:52;;;;;;;;;;;;;;;;;;4853389;29;19931;-88
2022/07/13 10:38:18;;;;;;;;;;;;;;;;;;4860623;29;19923;-89
2022/07/13 10:40:44;;;;;;;;;;;;;;;;;;4877499;29;19934;-88
2022/07/13 10:43:12;;;;;;;;;;;;;;;;;;4847260;29;20417;-88
2022/07/13 10:45:38;;;;;;;;;;;;;;;;;;4859871;29;19931;-89
2022/07/13 10:48:07;;;;;;;;;;;;;;;;;;4842012;29;22012;-89
2022/07/13 10:50:36;;;;;;;;;;;;;;;;;;4861609;29;20405;-89
2022/07/13 10:53:02;;;;;;;;;;;;;;;;;;4857798;29;19927;-88
2022/07/13 10:55:29;;;;;;;;;;;;;;;;;;4853428;29;19930;-89
2022/07/13 10:57:55;;;;;;;;;;;;;;;;;;4834536;29;20399;-89
2022/07/13 11:02:54;;;;;;;;;;;;;;;;;;4860064;29;19939;-88
2022/07/13 11:05:20;;;;;;;;;;;;;;;;;;4853930;29;20379;-88
2022/07/13 11:07:46;;;;;;;;;;;;;;;;;;4837852;29;19927;-88
2022/07/13 11:10:12;;;;;;;;;;;;;;;;;;4837350;29;19967;-89
2022/07/13 11:12:38;;;;;;;;;;;;;;;;;;4841297;29;19939;-89
2022/07/13 11:15:05;;;;;;;;;;;;;;;;;;4837335;29;22889;-89
2022/07/13 11:17:31;;;;;;;;;;;;;;;;;;4841634;29;20010;-88
2022/07/13 11:19:57;;;;;;;;;;;;;;;;;;4842804;29;20264;-90
2022/07/13 11:22:23;;;;;;;;;;;;;;;;;;4835716;29;20700;-89
2022/07/13 11:27:36;;;;;;;;;;;;;;;;;;4848049;29;20298;-88
2022/07/13 11:30:03;;;;;;;;;;;;;;;;;;4841640;29;19935;-89
2022/07/13 11:32:32;;;;;;;;;;;;;;;;;;4865482;29;19936;-89
2022/07/13 11:34:58;;;;;;;;;;;;;;;;;;4826340;29;19931;-90
2022/07/13 11:37:24;;;;;;;;;;;;;;;;;;4849404;29;20044;-89
2022/07/13 11:39:50;;;;;;;;;;;;;;;;;;4828117;29;19931;-89
2022/07/13 11:42:16;;;;;;;;;;;;;;;;;;4851193;29;19992;-90
2022/07/13 11:44:42;;;;;;;;;;;;;;;;;;4850235;29;19927;-89
2022/07/13 11:47:09;;;;;;;;;;;;;;;;;;4836042;29;19935;-90
2022/07/13 11:49:35;;;;;;;;;;;;;;;;;;4854178;29;19928;-91
2022/07/13 11:52:01;;;;;;;;;;;;;;;;;;4848663;29;19931;-89
2022/07/13 11:54:27;;;;;;;;;;;;;;;;;;4858340;29;19938;-90
2022/07/13 11:56:56;;;;;;;;;;;;;;;;;;4844401;29;19932;-90
2022/07/13 11:59:22;;;;;;;;;;;;;;;;;;4850290;29;19924;-89
2022/07/13 12:01:48;;;;;;;;;;;;;;;;;;4832857;29;19946;-89
2022/07/13 12:04:13;;;;;;;;;;;;;;;;;;4837690;29;19987;-89
2022/07/13 12:06:39;;;;;;;;;;;;;;;;;;4844461;29;19986;-91
2022/07/13 12:09:05;;;;;;;;;;;;;;;;;;4840599;29;19931;-89
2022/07/13 12:11:31;;;;;;;;;;;;;;;;;;4864114;29;19932;-88
2022/07/13 12:13:57;;;;;;;;;;;;;;;;;;4856050;29;19927;-89
2022/07/13 12:16:23;;;;;;;;;;;;;;;;;;4865685;29;20023;-89
2022/07/13 12:18:49;;;;;;;;;;;;;;;;;;4860256;29;19928;-89
2022/07/13 12:21:15;;;;;;;;;;;;;;;;;;4846577;29;20026;-89
2022/07/13 12:23:41;;;;;;;;;;;;;;;;;;4856605;29;19932;-89
2022/07/13 12:26:07;;;;;;;;;;;;;;;;;;4862662;29;19939;-89
2022/07/13 12:28:33;;;;;;;;;;;;;;;;;;4881460;29;19923;-89
2022/07/13 12:30:59;;;;;;;;;;;;;;;;;;4862481;29;20025;-89
2022/07/13 12:33:25;;;;;;;;;;;;;;;;;;4883729;29;20409;-89
2022/07/13 12:35:51;;;;;;;;;;;;;;;;;;4877211;29;19927;-89
2022/07/13 12:38:17;;;;;;;;;;;;;;;;;;4862779;29;19923;-89
2022/07/13 12:40:44;;;;;;;;;;;;;;;;;;4881532;29;19934;-89
2022/07/13 12:43:10;;;;;;;;;;;;;;;;;;4860675;29;20026;-89
2022/07/13 12:45:36;;;;;;;;;;;;;;;;;;4880176;29;19935;-89
2022/07/13 12:48:02;;;;;;;;;;;;;;;;;;4853157;29;19930;-89
2022/07/13 12:50:28;;;;;;;;;;;;;;;;;;4855836;29;19934;-89
2022/07/13 12:52:54;;;;;;;;;;;;;;;;;;4890308;29;19931;-90
2022/07/13 12:55:20;;;;;;;;;;;;;;;;;;4878650;29;20259;-90
2022/07/13 12:57:46;;;;;;;;;;;;;;;;;;4889102;29;20825;-88
2022/07/13 13:00:13;;;;;;;;;;;;;;;;;;4876732;29;20278;-90
2022/07/13 13:02:39;;;;;;;;;;;;;;;;;;4894690;29;20862;-89
2022/07/13 13:05:09;;;;;;;;;;;;;;;;;;4854832;29;21210;-89
2022/07/13 13:07:35;;;;;;;;;;;;;;;;;;4872134;29;20391;-89
2022/07/13 13:10:01;;;;;;;;;;;;;;;;;;4858474;29;25079;-89
2022/07/13 13:12:27;;;;;;;;;;;;;;;;;;4875003;29;19927;-89
2022/07/13 13:14:53;;;;;;;;;;;;;;;;;;4872068;29;20414;-89
2022/07/13 13:17:19;;;;;;;;;;;;;;;;;;4858535;29;19927;-89
2022/07/13 13:19:45;;;;;;;;;;;;;;;;;;4868314;29;20027;-91
2022/07/13 13:22:11;;;;;;;;;;;;;;;;;;4872664;29;19938;-90
2022/07/13 13:24:39;;;;;;;;;;;;;;;;;;4875453;29;19931;-90
2022/07/13 13:27:05;;;;;;;;;;;;;;;;;;4883661;29;19963;-89
2022/07/13 13:32:16;;;;;;;;;;;;;;;;;;4871073;29;19924;-89
2022/07/13 13:34:42;;;;;;;;;;;;;;;;;;4884805;29;19938;-90
2022/07/13 13:37:09;;;;;;;;;;;;;;;;;;4857901;29;19931;-89
2022/07/13 13:39:35;;;;;;;;;;;;;;;;;;4868247;29;19930;-89
2022/07/13 13:42:01;;;;;;;;;;;;;;;;;;4848956;29;20382;-90
2022/07/13 13:44:30;;;;;;;;;;;;;;;;;;4866463;29;20003;-89
2022/07/13 13:46:55;;;;;;;;;;;;;;;;;;4867901;29;20371;-90
2022/07/13 13:49:21;;;;;;;;;;;;;;;;;;4866767;29;19954;-90
2022/07/13 13:51:48;;;;;;;;;;;;;;;;;;4864945;29;20022;-88
2022/07/13 13:54:14;;;;;;;;;;;;;;;;;;4866927;29;19931;-89
2022/07/13 13:56:40;;;;;;;;;;;;;;;;;;4861310;29;19924;-89
2022/07/13 13:59:09;;;;;;;;;;;;;;;;;;4869954;29;19931;-90
2022/07/13 14:01:35;;;;;;;;;;;;;;;;;;4862898;29;19953;-90
2022/07/13 14:04:02;;;;;;;;;;;;;;;;;;4844168;29;19935;-92
2022/07/13 14:06:28;;;;;;;;;;;;;;;;;;4868104;29;20256;-89
2022/07/13 14:08:55;;;;;;;;;;;;;;;;;;4848908;29;19933;-90
2022/07/13 14:11:21;;;;;;;;;;;;;;;;;;4866782;29;19931;-89
2022/07/13 14:13:47;;;;;;;;;;;;;;;;;;4863955;29;20442;-90
2022/07/13 14:16:13;;;;;;;;;;;;;;;;;;4859928;29;20662;-89
2022/07/13 14:18:40;;;;;;;;;;;;;;;;;;4876653;29;19927;-90
2022/07/13 14:21:06;;;;;;;;;;;;;;;;;;4875997;29;19954;-90
2022/07/13 14:23:32;;;;;;;;;;;;;;;;;;4878482;29;20355;-88
2022/07/13 14:25:58;;;;;;;;;;;;;;;;;;4875950;29;19935;-89
2022/07/13 14:28:24;;;;;;;;;;;;;;;;;;4893515;29;20412;-91
2022/07/13 14:30:50;;;;;;;;;;;;;;;;;;4854930;29;20342;-91
2022/07/13 14:33:16;;;;;;;;;;;;;;;;;;4873663;29;19931;-90
2022/07/13 14:35:46;;;;;;;;;;;;;;;;;;4863531;29;19934;-89
2022/07/13 14:38:12;;;;;;;;;;;;;;;;;;4860731;29;19950;-89
2022/07/13 14:40:38;;;;;;;;;;;;;;;;;;4877647;29;19927;-90
2022/07/13 14:43:05;;;;;;;;;;;;;;;;;;4870907;29;20471;-90
2022/07/13 14:45:46;;;;;;;;;;;;;;;;;;4871714;29;19938;-88
2022/07/13 14:48:21;;;;;;;;;;;;;;;;;;4862127;29;20402;-89
2022/07/13 14:50:48;;;;;;;;;;;;;;;;;;4868612;29;19931;-88
2022/07/13 14:53:14;;;;;;;;;;;;;;;;;;4840931;29;20390;-90
2022/07/13 14:55:43;;;;;;;;;;;;;;;;;;4835463;29;19930;-89
2022/07/13 14:58:18;;;;;;;;;;;;;;;;;;4836124;29;19938;-89
2022/07/13 15:00:44;;;;;;;;;;;;;;;;;;4853815;29;19994;-89
2022/07/13 15:03:13;;;;;;;;;;;;;;;;;;4853223;29;19984;-89
2022/07/13 15:05:42;;;;;;;;;;;;;;;;;;4850894;29;20063;-88
2022/07/13 15:08:11;;;;;;;;;;;;;;;;;;4835835;29;19926;-89
2022/07/13 15:10:37;;;;;;;;;;;;;;;;;;4861462;29;20390;-90
2022/07/13 15:13:05;;;;;;;;;;;;;;;;;;4847472;29;19930;-90
2022/07/13 15:15:32;;;;;;;;;;;;;;;;;;4897136;29;19931;-90
2022/07/13 15:18:09;;;;;;;;;;;;;;;;;;4851366;29;19931;-88
2022/07/13 15:20:44;;;;;;;;;;;;;;;;;;4862958;29;19933;-86
2022/07/13 15:23:29;;;;;;;;;;;;;;;;;;4839330;29;20397;-89
2022/07/13 15:26:13;;;;;;;;;;;;;;;;;;4834911;29;19941;-88
2022/07/13 15:28:39;;;;;;;;;;;;;;;;;;4852162;29;19952;-88
2022/07/13 15:31:07;;;;;;;;;;;;;;;;;;4851353;29;20609;-87
2022/07/13 15:33:42;;;;;;;;;;;;;;;;;;4850915;29;19934;-87
2022/07/13 15:36:08;;;;;;;;;;;;;;;;;;4845008;29;19931;-88
2022/07/13 15:38:34;;;;;;;;;;;;;;;;;;4864243;29;19930;-88
2022/07/13 15:43:47;;;;;;;;;;;;;;;;;;4852677;29;20058;-88
2022/07/13 15:46:13;;;;;;;;;;;;;;;;;;4848833;29;19934;-87
2022/07/13 15:48:39;;;;;;;;;;;;;;;;;;4840039;29;19970;-88
2022/07/13 15:51:05;;;;;;;;;;;;;;;;;;4835786;29;19931;-88
2022/07/13 15:53:31;;;;;;;;;;;;;;;;;;4846878;29;19995;-89
2022/07/13 15:55:57;;;;;;;;;;;;;;;;;;4847160;29;19938;-89
2022/07/13 15:58:23;;;;;;;;;;;;;;;;;;4863420;29;20400;-89
2022/07/13 16:00:50;;;;;;;;;;;;;;;;;;4835858;29;19927;-88
2022/07/13 16:03:16;;;;;;;;;;;;;;;;;;4861190;29;19932;-89
2022/07/13 16:05:42;;;;;;;;;;;;;;;;;;4857981;29;19931;-87
2022/07/13 16:08:08;;;;;;;;;;;;;;;;;;4842963;29;19931;-89
2022/07/13 16:10:34;;;;;;;;;;;;;;;;;;4865211;29;20294;-89
2022/07/13 16:13:00;;;;;;;;;;;;;;;;;;4837999;29;19931;-88
2022/07/13 16:15:27;;;;;;;;;;;;;;;;;;4841706;29;19931;-88
2022/07/13 16:18:14;;;;;;;;;;;;;;;;;;4841523;29;19979;-89
2022/07/13 16:20:39;;;;;;;;;;;;;;;;;;4871859;29;19931;-89
2022/07/13 16:25:54;;;;;;;;;;;;;;;;;;4848468;29;20022;-89
2022/07/13 16:28:21;;;;;;;;;;;;;;;;;;4848789;29;19935;-88
2022/07/13 16:30:47;;;;;;;;;;;;;;;;;;4850382;29;19927;-89
2022/07/13 16:33:14;;;;;;;;;;;;;;;;;;4834794;29;19927;-89
2022/07/13 16:35:40;;;;;;;;;;;;;;;;;;4839991;29;19923;-89
2022/07/13 16:38:07;;;;;;;;;;;;;;;;;;4844107;29;22660;-90
2022/07/13 16:40:33;;;;;;;;;;;;;;;;;;4855141;29;20302;-89
2022/07/13 16:42:59;;;;;;;;;;;;;;;;;;4850566;29;21548;-90
2022/07/13 16:45:25;;;;;;;;;;;;;;;;;;4852065;29;19942;-90
2022/07/13 16:47:52;;;;;;;;;;;;;;;;;;4842260;29;19927;-89
2022/07/13 16:50:18;;;;;;;;;;;;;;;;;;4841135;29;19927;-90
2022/07/13 16:52:47;;;;;;;;;;;;;;;;;;4833311;29;19996;-90
2022/07/13 16:55:13;;;;;;;;;;;;;;;;;;4837966;29;19931;-92
2022/07/13 16:57:39;;;;;;;;;;;;;;;;;;4846204;29;19939;-90
2022/07/13 17:00:05;;;;;;;;;;;;;;;;;;4869550;29;20150;-89
2022/07/13 17:02:31;;;;;;;;;;;;;;;;;;4852847;29;20324;-89